Time;durP1;ratioP1;P1;durP2;ratioP2;P2;SDS_P1;SDS_P2;PMS_P1;PMS_P2;Temp;Humidity;BMP_temperature;BMP_pressure;BME280_temperature;BME280_humidity;BME280_pressure;Samples;Min_cycle;Max_cycle;Signal;HPM_P1;HPM_P2
2020/12/27 00:01:03;;;;;;;103.97;64.10;;;;;;;;;;5092988;28;20095;-53
2020/12/27 00:03:29;;;;;;;112.38;57.45;;;;;;;;;;5092940;28;20389;-55
2020/12/27 00:05:56;;;;;;;93.40;52.13;;;;;;;;;;5092976;28;20024;-55
2020/12/27 00:08:22;;;;;;;91.47;57.50;;;;;;;;;;5093010;28;20480;-55
2020/12/27 00:10:48;;;;;;;86.68;55.17;;;;;;;;;;5093006;28;20043;-54
2020/12/27 00:13:14;;;;;;;93.63;57.72;;;;;;;;;;5092910;28;20028;-55
2020/12/27 00:15:41;;;;;;;110.13;60.15;;;;;;;;;;5092976;28;20107;-55
2020/12/27 00:18:07;;;;;;;85.57;57.40;;;;;;;;;;5092916;28;20486;-55
2020/12/27 00:20:33;;;;;;;82.93;57.70;;;;;;;;;;5092939;28;20504;-55
2020/12/27 00:22:59;;;;;;;86.93;53.50;;;;;;;;;;5092548;28;20430;-54
2020/12/27 00:25:26;;;;;;;74.00;53.67;;;;;;;;;;5092583;28;20492;-55
2020/12/27 00:27:52;;;;;;;90.97;52.97;;;;;;;;;;5092749;28;20482;-55
2020/12/27 00:30:18;;;;;;;91.90;53.75;;;;;;;;;;5092572;28;20516;-55
2020/12/27 00:32:44;;;;;;;111.88;57.72;;;;;;;;;;5091838;28;20510;-56
2020/12/27 00:35:11;;;;;;;94.50;57.38;;;;;;;;;;5092489;28;20103;-53
2020/12/27 00:37:37;;;;;;;91.38;52.20;;;;;;;;;;5092666;28;20035;-55
2020/12/27 00:40:04;;;;;;;105.47;60.28;;;;;;;;;;5092601;28;20054;-54
2020/12/27 00:42:30;;;;;;;81.90;55.63;;;;;;;;;;5092489;28;20376;-54
2020/12/27 00:44:56;;;;;;;86.68;51.50;;;;;;;;;;5074055;28;20020;-56
2020/12/27 00:47:22;;;;;;;88.45;52.70;;;;;;;;;;5092144;28;20042;-56
2020/12/27 00:49:49;;;;;;;96.93;55.55;;;;;;;;;;5092253;28;20050;-55
2020/12/27 00:52:15;;;;;;;87.55;55.67;;;;;;;;;;5092226;28;20024;-55
2020/12/27 00:54:41;;;;;;;89.43;53.72;;;;;;;;;;5092090;28;20036;-55
2020/12/27 00:57:07;;;;;;;95.03;58.95;;;;;;;;;;5092289;28;20031;-55
2020/12/27 00:59:34;;;;;;;93.30;54.72;;;;;;;;;;5092183;28;20024;-55
2020/12/27 01:02:00;;;;;;;86.15;54.25;;;;;;;;;;5092104;28;20027;-55
2020/12/27 01:04:26;;;;;;;86.70;54.05;;;;;;;;;;5092105;28;20020;-55
2020/12/27 01:06:53;;;;;;;93.38;55.53;;;;;;;;;;5092040;28;20090;-55
2020/12/27 01:09:19;;;;;;;73.53;51.42;;;;;;;;;;5092057;28;20020;-55
2020/12/27 01:11:46;;;;;;;73.05;54.58;;;;;;;;;;5091907;28;20461;-55
2020/12/27 01:14:12;;;;;;;83.13;55.55;;;;;;;;;;5091972;28;20032;-55
2020/12/27 01:16:38;;;;;;;92.47;54.47;;;;;;;;;;5092079;28;20027;-55
2020/12/27 01:19:05;;;;;;;89.03;55.30;;;;;;;;;;5091655;28;20099;-55
2020/12/27 01:21:35;;;;;;;78.80;50.72;;;;;;;;;;5091856;28;20023;-56
2020/12/27 01:24:01;;;;;;;77.28;53.17;;;;;;;;;;5091700;28;20039;-55
2020/12/27 01:26:31;;;;;;;82.32;53.25;;;;;;;;;;5091862;28;20042;-56
2020/12/27 01:28:57;;;;;;;83.72;52.58;;;;;;;;;;5091715;28;20099;-56
2020/12/27 01:31:24;;;;;;;86.63;55.47;;;;;;;;;;5091787;28;20016;-53
2020/12/27 01:33:51;;;;;;;96.30;50.40;;;;;;;;;;5091532;28;20419;-54
2020/12/27 01:36:29;;;;;;;99.63;56.25;;;;;;;;;;5091694;28;20016;-54
2020/12/27 01:38:56;;;;;;;94.43;52.45;;;;;;;;;;5091571;28;20028;-54
2020/12/27 01:41:23;;;;;;;91.85;54.10;;;;;;;;;;5091727;28;20028;-55
2020/12/27 01:43:59;;;;;;;89.07;53.65;;;;;;;;;;5074384;28;20052;-54
2020/12/27 01:46:26;;;;;;;105.18;55.38;;;;;;;;;;5095852;28;20050;-54
2020/12/27 01:48:52;;;;;;;90.75;56.65;;;;;;;;;;5095671;28;20032;-56
2020/12/27 01:51:18;;;;;;;84.40;49.50;;;;;;;;;;5095640;28;20020;-56
2020/12/27 01:53:45;;;;;;;85.85;51.83;;;;;;;;;;5095418;28;20050;-56
2020/12/27 01:56:13;;;;;;;113.30;59.33;;;;;;;;;;5095568;28;20046;-53
2020/12/27 01:58:40;;;;;;;84.97;49.05;;;;;;;;;;5095494;28;20055;-56
2020/12/27 02:01:07;;;;;;;85.78;45.67;;;;;;;;;;5095468;28;20028;-55
2020/12/27 02:03:34;;;;;;;88.53;52.03;;;;;;;;;;5095396;28;20099;-53
2020/12/27 02:06:00;;;;;;;75.78;48.00;;;;;;;;;;5095349;28;20103;-54
2020/12/27 02:08:27;;;;;;;102.63;60.08;;;;;;;;;;5095134;28;20047;-54
2020/12/27 02:10:53;;;;;;;119.78;55.85;;;;;;;;;;5095350;28;20465;-54
2020/12/27 02:13:19;;;;;;;109.53;62.53;;;;;;;;;;5095203;28;20036;-54
2020/12/27 02:15:46;;;;;;;112.22;62.30;;;;;;;;;;5095241;28;20047;-53
2020/12/27 02:18:12;;;;;;;93.85;52.83;;;;;;;;;;5095184;28;20412;-54
2020/12/27 02:20:38;;;;;;;105.40;56.33;;;;;;;;;;5095094;28;20051;-54
2020/12/27 02:23:05;;;;;;;99.88;57.58;;;;;;;;;;5095023;28;20099;-53
2020/12/27 02:25:31;;;;;;;98.30;55.00;;;;;;;;;;5094210;28;20028;-54
2020/12/27 02:27:58;;;;;;;100.43;58.42;;;;;;;;;;5093886;28;20043;-54
2020/12/27 02:30:24;;;;;;;107.88;54.15;;;;;;;;;;5094251;28;20024;-54
2020/12/27 02:32:51;;;;;;;97.07;64.30;;;;;;;;;;5094253;28;20063;-53
2020/12/27 02:35:17;;;;;;;93.90;60.40;;;;;;;;;;5094436;28;20072;-54
2020/12/27 02:37:43;;;;;;;97.25;61.95;;;;;;;;;;5094481;28;20458;-55
2020/12/27 02:40:09;;;;;;;88.82;58.67;;;;;;;;;;5094288;28;20378;-53
2020/12/27 02:42:35;;;;;;;91.22;60.15;;;;;;;;;;5094660;28;20032;-53
2020/12/27 02:47:28;;;;;;;118.32;60.10;;;;;;;;;;5094732;28;20028;-55
2020/12/27 02:49:54;;;;;;;107.95;60.53;;;;;;;;;;5094765;28;20127;-55
2020/12/27 02:52:20;;;;;;;95.45;57.80;;;;;;;;;;5094676;28;20031;-54
2020/12/27 02:54:47;;;;;;;105.45;62.13;;;;;;;;;;5094007;28;20031;-55
2020/12/27 02:57:13;;;;;;;107.53;59.60;;;;;;;;;;5094468;28;20024;-53
2020/12/27 02:59:39;;;;;;;106.80;64.55;;;;;;;;;;5094333;28;20472;-54
2020/12/27 03:02:06;;;;;;;99.60;59.20;;;;;;;;;;5094321;28;20381;-54
2020/12/27 03:04:32;;;;;;;97.40;60.60;;;;;;;;;;5094310;28;20016;-54
2020/12/27 03:06:58;;;;;;;120.32;64.03;;;;;;;;;;5094306;28;20048;-54
2020/12/27 03:09:24;;;;;;;102.30;58.35;;;;;;;;;;5094150;28;20071;-53
2020/12/27 03:11:51;;;;;;;108.78;60.00;;;;;;;;;;5094113;28;20022;-53
2020/12/27 03:14:17;;;;;;;105.15;64.10;;;;;;;;;;5094214;28;20055;-55
2020/12/27 03:16:43;;;;;;;112.53;64.57;;;;;;;;;;5094018;28;20020;-53
2020/12/27 03:19:09;;;;;;;123.40;71.07;;;;;;;;;;5093990;28;20020;-54
2020/12/27 03:21:35;;;;;;;118.72;65.38;;;;;;;;;;5093980;28;20058;-55
2020/12/27 03:24:02;;;;;;;109.50;63.00;;;;;;;;;;5092973;28;20058;-55
2020/12/27 03:26:28;;;;;;;108.45;61.83;;;;;;;;;;5093745;28;20016;-55
2020/12/27 03:28:54;;;;;;;92.82;64.68;;;;;;;;;;5093858;28;20091;-55
2020/12/27 03:31:20;;;;;;;123.07;72.68;;;;;;;;;;5093649;28;20020;-56
2020/12/27 03:33:47;;;;;;;120.50;69.85;;;;;;;;;;5093509;28;20110;-55
2020/12/27 03:36:13;;;;;;;107.13;62.72;;;;;;;;;;5093689;28;20400;-56
2020/12/27 03:38:39;;;;;;;111.03;66.00;;;;;;;;;;5093599;28;20118;-56
2020/12/27 03:41:06;;;;;;;126.35;64.75;;;;;;;;;;5093105;28;20504;-55
2020/12/27 03:43:32;;;;;;;102.57;65.97;;;;;;;;;;5093215;28;20104;-54
2020/12/27 03:45:58;;;;;;;115.88;71.45;;;;;;;;;;5074876;28;20022;-53
2020/12/27 03:48:24;;;;;;;123.05;73.22;;;;;;;;;;5093444;28;20024;-55
2020/12/27 03:50:51;;;;;;;122.63;68.70;;;;;;;;;;5093418;28;20482;-55
2020/12/27 03:53:17;;;;;;;127.25;74.47;;;;;;;;;;5093429;28;20028;-55
2020/12/27 03:55:43;;;;;;;114.05;73.65;;;;;;;;;;5093519;28;20028;-55
2020/12/27 03:58:09;;;;;;;117.35;72.18;;;;;;;;;;5093542;28;20173;-54
2020/12/27 04:00:36;;;;;;;115.28;63.63;;;;;;;;;;5074321;28;20061;-55
2020/12/27 04:03:02;;;;;;;100.00;65.05;;;;;;;;;;5089931;28;20569;-55
2020/12/27 04:05:28;;;;;;;107.00;67.28;;;;;;;;;;5093846;28;20028;-59
2020/12/27 04:07:55;;;;;;;122.75;74.85;;;;;;;;;;5091960;28;20031;-57
2020/12/27 04:10:21;;;;;;;139.50;72.43;;;;;;;;;;5093064;28;20016;-55
2020/12/27 04:12:47;;;;;;;118.93;74.43;;;;;;;;;;5092642;28;20028;-54
2020/12/27 04:15:14;;;;;;;105.05;66.72;;;;;;;;;;5092978;28;20030;-54
2020/12/27 04:17:40;;;;;;;96.50;68.15;;;;;;;;;;5092690;28;20391;-59
2020/12/27 04:20:06;;;;;;;147.68;76.72;;;;;;;;;;5093041;28;20020;-56
2020/12/27 04:22:32;;;;;;;129.57;73.30;;;;;;;;;;5092808;28;20042;-56
2020/12/27 04:24:59;;;;;;;98.57;69.95;;;;;;;;;;5092955;28;20058;-55
2020/12/27 04:27:25;;;;;;;112.78;72.53;;;;;;;;;;5092626;28;20461;-55
2020/12/27 04:29:51;;;;;;;118.80;70.20;;;;;;;;;;5092667;28;20023;-55
2020/12/27 04:32:17;;;;;;;126.05;78.10;;;;;;;;;;5092302;28;20123;-54
2020/12/27 04:34:44;;;;;;;127.10;73.50;;;;;;;;;;5092580;28;20028;-55
2020/12/27 04:37:10;;;;;;;117.63;74.32;;;;;;;;;;5092524;28;20028;-54
2020/12/27 04:39:36;;;;;;;141.52;77.18;;;;;;;;;;5092453;28;20024;-55
2020/12/27 04:42:02;;;;;;;115.30;71.25;;;;;;;;;;5092256;28;20063;-56
2020/12/27 04:44:29;;;;;;;111.75;66.75;;;;;;;;;;5092404;28;20026;-56
2020/12/27 04:46:55;;;;;;;106.63;68.28;;;;;;;;;;5092335;28;20022;-53
2020/12/27 04:49:22;;;;;;;137.23;71.70;;;;;;;;;;5092221;28;20020;-53
2020/12/27 04:51:49;;;;;;;119.78;74.18;;;;;;;;;;5092449;28;20020;-51
2020/12/27 04:54:15;;;;;;;107.90;67.00;;;;;;;;;;5092261;28;20023;-55
2020/12/27 04:56:42;;;;;;;118.25;71.70;;;;;;;;;;5092204;28;20091;-52
2020/12/27 04:59:08;;;;;;;117.88;68.72;;;;;;;;;;5091651;28;20028;-54
2020/12/27 05:01:34;;;;;;;111.78;68.55;;;;;;;;;;5091775;28;20079;-55
2020/12/27 05:04:01;;;;;;;103.85;65.85;;;;;;;;;;5091772;28;20498;-54
2020/12/27 05:06:27;;;;;;;102.10;65.38;;;;;;;;;;5091680;28;20024;-54
2020/12/27 05:08:59;;;;;;;98.90;63.33;;;;;;;;;;5091657;28;20024;-54
2020/12/27 05:11:25;;;;;;;125.70;66.30;;;;;;;;;;5072720;28;20386;-54
2020/12/27 05:13:51;;;;;;;102.95;60.20;;;;;;;;;;5083440;28;20028;-54
2020/12/27 05:16:18;;;;;;;92.05;61.10;;;;;;;;;;5090609;28;20148;-54
2020/12/27 05:18:50;;;;;;;110.15;63.30;;;;;;;;;;5089959;28;20024;-55
2020/12/27 05:21:19;;;;;;;109.65;57.33;;;;;;;;;;5088689;28;20035;-55
2020/12/27 05:23:45;;;;;;;102.05;57.20;;;;;;;;;;5090456;28;20028;-54
2020/12/27 05:26:11;;;;;;;103.10;58.60;;;;;;;;;;5090462;28;20057;-54
2020/12/27 05:28:38;;;;;;;115.10;59.08;;;;;;;;;;5090430;28;20131;-54
2020/12/27 05:31:14;;;;;;;97.57;55.42;;;;;;;;;;5090212;28;20016;-54
2020/12/27 05:33:41;;;;;;;92.00;55.65;;;;;;;;;;5089416;28;20048;-54
2020/12/27 05:36:07;;;;;;;106.13;59.88;;;;;;;;;;5091666;28;20031;-54
2020/12/27 05:38:34;;;;;;;101.47;58.55;;;;;;;;;;5091536;28;20374;-54
2020/12/27 05:41:01;;;;;;;97.18;56.17;;;;;;;;;;5091646;28;20020;-54
2020/12/27 05:43:27;;;;;;;116.50;54.47;;;;;;;;;;5091354;28;20079;-54
2020/12/27 05:45:56;;;;;;;108.63;55.13;;;;;;;;;;5091270;28;20040;-56
2020/12/27 05:48:22;;;;;;;94.65;51.20;;;;;;;;;;5091470;28;20035;-56
2020/12/27 05:50:52;;;;;;;89.47;53.17;;;;;;;;;;5091522;28;20029;-55
2020/12/27 05:53:23;;;;;;;92.13;54.45;;;;;;;;;;5091658;28;20032;-54
2020/12/27 05:55:52;;;;;;;80.22;50.97;;;;;;;;;;5091409;28;20028;-56
2020/12/27 05:58:23;;;;;;;81.80;51.20;;;;;;;;;;5091545;28;20102;-55
2020/12/27 06:01:07;;;;;;;88.40;52.90;;;;;;;;;;5091200;28;20027;-53
2020/12/27 06:03:39;;;;;;;84.60;47.47;;;;;;;;;;5091305;28;20024;-56
2020/12/27 06:06:09;;;;;;;86.13;50.50;;;;;;;;;;5091329;28;20389;-54
2020/12/27 06:08:47;;;;;;;80.90;48.40;;;;;;;;;;5091554;28;20131;-55
2020/12/27 06:11:24;;;;;;;98.28;50.72;;;;;;;;;;5091341;28;20240;-54
2020/12/27 06:13:51;;;;;;;79.22;51.33;;;;;;;;;;5091775;28;20806;-53
2020/12/27 06:16:20;;;;;;;83.20;51.53;;;;;;;;;;5091234;28;20031;-54
2020/12/27 06:18:58;;;;;;;66.78;45.70;;;;;;;;;;5091399;28;20393;-55
2020/12/27 06:21:25;;;;;;;85.07;51.03;;;;;;;;;;5091293;28;20020;-55
2020/12/27 06:23:54;;;;;;;83.93;50.90;;;;;;;;;;5091106;28;20024;-55
2020/12/27 06:26:20;;;;;;;67.47;45.47;;;;;;;;;;5091256;28;20020;-53
2020/12/27 06:28:47;;;;;;;85.65;48.88;;;;;;;;;;5091037;28;20023;-54
2020/12/27 06:31:13;;;;;;;88.78;53.38;;;;;;;;;;5094176;28;20485;-55
2020/12/27 06:33:41;;;;;;;85.72;49.67;;;;;;;;;;5094725;28;20497;-57
2020/12/27 06:36:08;;;;;;;84.05;46.28;;;;;;;;;;5094918;28;20024;-55
2020/12/27 06:38:34;;;;;;;69.85;45.28;;;;;;;;;;5094722;28;20039;-54
2020/12/27 06:41:08;;;;;;;70.45;42.97;;;;;;;;;;5076497;28;20020;-54
2020/12/27 06:43:46;;;;;;;73.80;46.63;;;;;;;;;;5094478;28;20473;-55
2020/12/27 06:46:28;;;;;;;76.85;44.88;;;;;;;;;;5094569;28;20153;-55
2020/12/27 06:49:10;;;;;;;73.88;44.05;;;;;;;;;;5076218;28;20381;-56
2020/12/27 06:51:44;;;;;;;83.15;42.95;;;;;;;;;;5094225;28;20028;-55
2020/12/27 06:54:10;;;;;;;69.57;40.97;;;;;;;;;;5093970;28;20021;-54
2020/12/27 06:56:40;;;;;;;76.28;42.83;;;;;;;;;;5094182;28;20020;-57
2020/12/27 06:59:06;;;;;;;77.90;45.25;;;;;;;;;;5094250;28;20047;-54
2020/12/27 07:01:33;;;;;;;76.20;40.55;;;;;;;;;;5094100;28;20020;-53
2020/12/27 07:04:16;;;;;;;64.20;40.35;;;;;;;;;;5094194;28;20389;-54
2020/12/27 07:06:43;;;;;;;77.03;47.67;;;;;;;;;;5094334;28;20063;-54
2020/12/27 11:51:08;;;;;;;62.17;34.03;;;;;;;;;;5109663;27;20919;-52
2020/12/27 11:53:35;;;;;;;49.60;32.28;;;;;;;;;;5109667;28;20051;-54
2020/12/27 11:56:01;;;;;;;61.08;30.48;;;;;;;;;;5108519;28;20031;-52
2020/12/27 11:58:27;;;;;;;52.08;32.22;;;;;;;;;;5109508;28;20089;-48
2020/12/27 12:00:53;;;;;;;50.28;32.10;;;;;;;;;;5108744;28;20407;-54
2020/12/27 12:03:19;;;;;;;64.03;33.28;;;;;;;;;;5108890;28;20107;-53
2020/12/27 12:05:46;;;;;;;69.03;32.15;;;;;;;;;;5107568;28;20077;-54
2020/12/27 12:08:12;;;;;;;69.43;35.35;;;;;;;;;;5108106;28;20052;-54
2020/12/27 12:10:39;;;;;;;77.22;35.35;;;;;;;;;;5109401;28;20491;-53
2020/12/27 12:13:05;;;;;;;64.72;37.03;;;;;;;;;;5108529;28;20020;-53
2020/12/27 12:15:31;;;;;;;62.28;34.95;;;;;;;;;;5108987;28;20028;-54
2020/12/27 12:17:58;;;;;;;68.13;38.10;;;;;;;;;;5109249;28;20016;-53
2020/12/27 12:20:45;;;;;;;63.33;36.53;;;;;;;;;;5109073;28;20023;-53
2020/12/27 12:23:11;;;;;;;65.63;36.95;;;;;;;;;;5108884;28;20032;-53
2020/12/27 12:25:39;;;;;;;77.35;38.40;;;;;;;;;;5108869;28;20095;-55
2020/12/27 12:28:06;;;;;;;54.42;29.08;;;;;;;;;;5109159;28;20520;-54
2020/12/27 12:30:32;;;;;;;75.20;38.55;;;;;;;;;;5108786;28;20032;-55
2020/12/27 12:32:58;;;;;;;51.53;33.05;;;;;;;;;;5109024;28;20024;-51
2020/12/27 12:35:25;;;;;;;69.88;40.63;;;;;;;;;;5108488;28;20028;-52
2020/12/27 12:37:51;;;;;;;65.72;34.15;;;;;;;;;;5108710;28;20021;-51
2020/12/27 12:40:17;;;;;;;67.25;34.80;;;;;;;;;;5108941;28;20135;-52
2020/12/27 12:42:43;;;;;;;75.30;41.00;;;;;;;;;;5108759;28;20069;-53
2020/12/27 12:45:10;;;;;;;75.38;38.35;;;;;;;;;;5107282;28;20115;-54
2020/12/27 12:47:36;;;;;;;75.10;38.75;;;;;;;;;;5108582;28;20369;-51
2020/12/27 12:50:03;;;;;;;67.60;38.40;;;;;;;;;;5108208;28;20139;-52
2020/12/27 12:52:29;;;;;;;54.90;37.90;;;;;;;;;;5108499;28;20093;-49
2020/12/27 12:54:57;;;;;;;70.95;39.00;;;;;;;;;;5108371;28;20024;-51
2020/12/27 12:57:23;;;;;;;93.57;46.08;;;;;;;;;;5108196;28;20030;-52
2020/12/27 12:59:49;;;;;;;77.60;47.45;;;;;;;;;;5108150;28;20481;-53
2020/12/27 13:02:16;;;;;;;95.72;50.53;;;;;;;;;;5096234;28;20538;-53
2020/12/27 13:04:42;;;;;;;76.78;49.17;;;;;;;;;;5094652;28;20444;-52
2020/12/27 13:07:09;;;;;;;84.60;46.08;;;;;;;;;;5094655;28;20020;-52
2020/12/27 13:09:35;;;;;;;71.20;42.40;;;;;;;;;;5094416;28;20035;-53
2020/12/27 13:12:01;;;;;;;63.63;41.65;;;;;;;;;;5094534;28;20529;-52
2020/12/27 13:14:27;;;;;;;79.97;50.63;;;;;;;;;;5094587;28;20413;-52
2020/12/27 13:16:54;;;;;;;82.93;48.05;;;;;;;;;;5094422;28;20085;-52
2020/12/27 13:19:20;;;;;;;98.75;52.60;;;;;;;;;;5094406;28;20035;-53
2020/12/27 13:21:46;;;;;;;67.78;43.42;;;;;;;;;;5094256;28;20106;-52
2020/12/27 13:24:12;;;;;;;77.25;47.80;;;;;;;;;;5094443;28;20501;-52
2020/12/27 13:26:41;;;;;;;82.43;47.67;;;;;;;;;;5094451;28;20419;-51
2020/12/27 13:29:07;;;;;;;94.75;48.20;;;;;;;;;;5094202;28;20027;-47
2020/12/27 13:31:37;;;;;;;89.93;47.08;;;;;;;;;;5094243;28;20045;-50
2020/12/27 13:34:03;;;;;;;75.13;49.80;;;;;;;;;;5094015;28;20025;-52
2020/12/27 13:36:29;;;;;;;87.10;50.05;;;;;;;;;;5094033;28;20095;-53
2020/12/27 13:38:56;;;;;;;87.90;45.13;;;;;;;;;;5093692;28;20024;-51
2020/12/27 13:41:22;;;;;;;67.53;44.42;;;;;;;;;;5093943;28;20427;-50
2020/12/27 13:43:48;;;;;;;78.13;50.67;;;;;;;;;;5093917;28;20024;-51
2020/12/27 13:46:16;;;;;;;75.25;47.00;;;;;;;;;;5093894;28;20024;-49
2020/12/27 13:48:45;;;;;;;106.13;55.08;;;;;;;;;;5093593;28;20027;-49
2020/12/27 13:51:12;;;;;;;67.22;44.15;;;;;;;;;;5092613;28;20550;-53
2020/12/27 13:53:38;;;;;;;71.88;47.30;;;;;;;;;;5093760;28;20023;-51
2020/12/27 13:56:05;;;;;;;89.45;48.13;;;;;;;;;;5093572;28;20027;-51
2020/12/27 13:58:32;;;;;;;104.70;54.85;;;;;;;;;;5093668;28;20404;-50
2020/12/27 14:00:58;;;;;;;87.40;54.70;;;;;;;;;;5093368;28;20535;-53
2020/12/27 14:03:25;;;;;;;86.70;50.90;;;;;;;;;;5093579;28;20028;-51
2020/12/27 14:05:51;;;;;;;90.72;49.45;;;;;;;;;;5093480;28;20024;-55
2020/12/27 14:08:17;;;;;;;92.30;48.85;;;;;;;;;;5093375;28;20024;-54
2020/12/27 14:10:43;;;;;;;84.95;47.95;;;;;;;;;;5093329;28;20074;-51
2020/12/27 14:13:10;;;;;;;90.82;55.08;;;;;;;;;;5091101;28;20054;-50
2020/12/27 14:15:36;;;;;;;92.45;50.20;;;;;;;;;;5093193;28;20020;-52
2020/12/27 14:18:02;;;;;;;84.93;52.65;;;;;;;;;;5093208;28;20027;-52
2020/12/27 14:20:28;;;;;;;74.22;48.72;;;;;;;;;;5093242;28;20020;-53
2020/12/27 14:22:55;;;;;;;102.50;51.45;;;;;;;;;;5091871;28;20039;-49
2020/12/27 14:25:21;;;;;;;84.47;52.45;;;;;;;;;;5091970;28;20034;-51
2020/12/27 14:27:47;;;;;;;85.47;54.22;;;;;;;;;;5093182;28;20031;-51
2020/12/27 14:32:22;;;;;;;72.43;45.63;;;;;;;;;;5089307;28;20371;-54
2020/12/27 14:34:48;;;;;;;75.85;42.88;;;;;;;;;;5089299;28;20123;-51
2020/12/27 14:37:14;;;;;;;74.35;46.42;;;;;;;;;;5089124;28;20024;-53
2020/12/27 14:39:41;;;;;;;85.63;50.95;;;;;;;;;;5089170;28;20051;-52
2020/12/27 14:42:07;;;;;;;80.63;48.40;;;;;;;;;;5089016;28;20024;-52
2020/12/27 14:44:33;;;;;;;78.65;48.97;;;;;;;;;;5089336;28;20813;-53
2020/12/27 14:46:59;;;;;;;88.32;49.10;;;;;;;;;;5089177;28;20032;-55
2020/12/27 14:49:26;;;;;;;85.68;48.72;;;;;;;;;;5088972;28;20078;-53
2020/12/27 14:51:52;;;;;;;79.15;49.33;;;;;;;;;;5088731;28;20030;-52
2020/12/27 14:54:18;;;;;;;99.65;50.80;;;;;;;;;;5088877;28;20072;-51
2020/12/27 14:56:44;;;;;;;87.55;52.20;;;;;;;;;;5088789;28;20025;-58
2020/12/27 14:59:10;;;;;;;81.72;50.13;;;;;;;;;;5088729;28;20500;-52
2020/12/27 15:01:43;;;;;;;96.65;53.53;;;;;;;;;;5088399;28;20043;-50
2020/12/27 15:04:09;;;;;;;96.25;53.47;;;;;;;;;;5088754;28;20020;-52
2020/12/27 15:06:36;;;;;;;98.45;52.85;;;;;;;;;;5088706;28;20032;-52
2020/12/27 15:09:03;;;;;;;81.57;51.92;;;;;;;;;;5088892;28;20724;-55
2020/12/27 15:11:29;;;;;;;95.00;53.90;;;;;;;;;;5088661;28;20734;-54
2020/12/27 15:13:56;;;;;;;92.07;53.05;;;;;;;;;;5088463;28;20024;-54
2020/12/27 15:16:22;;;;;;;79.55;51.28;;;;;;;;;;5088456;28;20050;-51
2020/12/27 15:18:48;;;;;;;83.90;48.90;;;;;;;;;;5088141;28;20528;-54
2020/12/27 15:21:14;;;;;;;98.75;53.25;;;;;;;;;;5088243;28;20028;-53
2020/12/27 15:23:41;;;;;;;92.80;54.90;;;;;;;;;;5088245;28;20031;-52
2020/12/27 15:26:07;;;;;;;94.47;56.05;;;;;;;;;;5088218;28;20049;-54
2020/12/27 15:28:33;;;;;;;89.28;50.33;;;;;;;;;;5088252;28;20073;-54
2020/12/27 15:31:00;;;;;;;72.43;47.33;;;;;;;;;;5086374;28;20068;-54
2020/12/27 15:33:26;;;;;;;102.00;51.30;;;;;;;;;;5087412;28;20032;-54
2020/12/27 15:35:52;;;;;;;118.38;57.17;;;;;;;;;;5088111;28;20016;-56
2020/12/27 15:38:18;;;;;;;117.47;53.20;;;;;;;;;;5088102;28;20016;-55
2020/12/27 15:40:45;;;;;;;98.85;55.35;;;;;;;;;;5088045;28;20024;-54
2020/12/27 15:43:11;;;;;;;95.35;54.80;;;;;;;;;;5077614;28;20103;-53
2020/12/27 15:45:37;;;;;;;88.75;56.92;;;;;;;;;;5074292;28;20024;-54
2020/12/27 15:48:03;;;;;;;95.40;58.63;;;;;;;;;;5074417;28;20024;-53
2020/12/27 15:50:30;;;;;;;90.40;51.90;;;;;;;;;;5074415;28;20024;-58
2020/12/27 15:52:56;;;;;;;101.38;58.47;;;;;;;;;;5074259;28;20043;-57
2020/12/27 15:55:22;;;;;;;92.38;57.08;;;;;;;;;;5074171;28;20107;-51
2020/12/27 15:57:48;;;;;;;97.25;55.33;;;;;;;;;;5073859;28;20020;-53
2020/12/27 16:00:15;;;;;;;96.07;57.60;;;;;;;;;;5073987;28;20024;-52
2020/12/27 16:02:41;;;;;;;103.72;58.03;;;;;;;;;;5073914;28;20021;-53
2020/12/27 16:05:07;;;;;;;93.85;56.90;;;;;;;;;;5074017;28;20527;-56
2020/12/27 16:07:33;;;;;;;98.70;59.20;;;;;;;;;;5073875;28;20074;-54
2020/12/27 16:10:00;;;;;;;98.95;52.08;;;;;;;;;;5063694;28;20024;-52
2020/12/27 16:12:27;;;;;;;77.32;47.65;;;;;;;;;;5053978;28;20415;-54
2020/12/27 16:14:53;;;;;;;101.25;52.78;;;;;;;;;;5052663;28;20068;-52
2020/12/27 16:17:20;;;;;;;95.45;51.47;;;;;;;;;;5053952;28;20047;-53
2020/12/27 16:19:46;;;;;;;96.85;57.15;;;;;;;;;;5053695;28;20032;-53
2020/12/27 16:22:12;;;;;;;84.30;56.15;;;;;;;;;;5054086;28;20029;-52
2020/12/27 16:24:38;;;;;;;89.57;54.65;;;;;;;;;;5053690;28;20029;-54
2020/12/27 16:27:05;;;;;;;110.88;60.80;;;;;;;;;;5053835;28;20481;-53
2020/12/27 16:29:31;;;;;;;105.28;59.20;;;;;;;;;;5053653;28;20025;-53
2020/12/27 16:31:57;;;;;;;98.35;57.92;;;;;;;;;;5053095;28;20136;-53
2020/12/27 16:34:23;;;;;;;109.07;57.95;;;;;;;;;;5052192;28;20498;-53
2020/12/27 16:36:56;;;;;;;100.63;57.53;;;;;;;;;;5053585;28;20032;-53
2020/12/27 16:39:23;;;;;;;86.55;55.83;;;;;;;;;;5053397;28;20017;-53
2020/12/27 16:41:49;;;;;;;83.95;57.42;;;;;;;;;;5053324;28;20025;-54
2020/12/27 16:44:16;;;;;;;100.75;57.38;;;;;;;;;;5051968;28;20033;-56
2020/12/27 16:46:42;;;;;;;89.93;54.78;;;;;;;;;;5053469;28;20029;-53
2020/12/27 16:49:08;;;;;;;71.55;50.30;;;;;;;;;;5052217;28;20688;-53
2020/12/27 16:51:34;;;;;;;78.07;53.33;;;;;;;;;;5051944;28;20378;-54
2020/12/27 16:54:01;;;;;;;90.95;53.25;;;;;;;;;;5052119;28;20090;-52
2020/12/27 16:56:27;;;;;;;89.18;56.42;;;;;;;;;;5053056;28;20021;-54
2020/12/27 16:58:53;;;;;;;96.25;59.05;;;;;;;;;;5053170;28;20021;-54
2020/12/27 17:01:20;;;;;;;86.43;52.63;;;;;;;;;;5053055;28;20025;-54
2020/12/27 17:03:46;;;;;;;96.80;51.83;;;;;;;;;;5052739;28;20031;-55
2020/12/27 17:06:13;;;;;;;92.35;51.90;;;;;;;;;;5052939;28;20029;-53
2020/12/27 17:08:42;;;;;;;94.78;57.03;;;;;;;;;;5051571;28;20405;-53
2020/12/27 17:11:08;;;;;;;103.57;56.45;;;;;;;;;;5052535;28;20028;-54
2020/12/27 17:13:35;;;;;;;98.03;57.88;;;;;;;;;;5052801;28;20411;-54
2020/12/27 17:16:01;;;;;;;97.55;59.67;;;;;;;;;;5067102;28;20028;-54
2020/12/27 17:18:30;;;;;;;81.90;53.85;;;;;;;;;;5072505;28;20012;-53
2020/12/27 17:20:56;;;;;;;84.63;50.92;;;;;;;;;;5072597;28;20062;-54
2020/12/27 17:23:22;;;;;;;88.07;54.95;;;;;;;;;;5072455;28;20099;-52
2020/12/27 17:25:49;;;;;;;99.22;51.17;;;;;;;;;;5072500;28;20036;-54
2020/12/27 17:28:15;;;;;;;92.72;52.97;;;;;;;;;;5072469;28;20078;-52
2020/12/27 17:30:41;;;;;;;110.45;51.67;;;;;;;;;;5072080;28;20051;-53
2020/12/27 17:33:07;;;;;;;84.10;50.03;;;;;;;;;;5072438;28;20064;-54
2020/12/27 17:35:34;;;;;;;80.82;47.05;;;;;;;;;;5072438;28;20025;-55
2020/12/27 17:38:00;;;;;;;90.38;49.80;;;;;;;;;;5072202;28;20020;-53
2020/12/27 17:40:27;;;;;;;103.25;55.92;;;;;;;;;;5072188;28;20151;-53
2020/12/27 17:42:53;;;;;;;91.07;55.25;;;;;;;;;;5072195;28;20028;-53
2020/12/27 17:45:20;;;;;;;89.55;52.55;;;;;;;;;;5071416;28;20029;-54
2020/12/27 17:47:46;;;;;;;96.72;54.95;;;;;;;;;;5071505;28;20024;-53
2020/12/27 17:50:12;;;;;;;95.63;53.45;;;;;;;;;;5071801;28;20032;-54
2020/12/27 17:52:38;;;;;;;79.20;51.22;;;;;;;;;;5071827;28;20048;-54
2020/12/27 17:55:05;;;;;;;106.20;55.35;;;;;;;;;;5071878;28;20017;-53
2020/12/27 17:57:31;;;;;;;87.82;52.55;;;;;;;;;;5071806;28;20020;-54
2020/12/27 17:59:57;;;;;;;77.88;48.85;;;;;;;;;;5071928;28;20021;-54
2020/12/27 18:02:23;;;;;;;91.97;57.05;;;;;;;;;;5071395;28;20024;-54
2020/12/27 18:04:51;;;;;;;87.32;56.72;;;;;;;;;;5071381;28;20427;-52
2020/12/27 18:07:19;;;;;;;101.35;55.25;;;;;;;;;;5071811;28;20042;-54
2020/12/27 18:09:45;;;;;;;87.00;52.63;;;;;;;;;;5071744;28;20028;-55
2020/12/27 18:12:11;;;;;;;102.13;58.38;;;;;;;;;;5071846;28;20028;-55
2020/12/27 18:14:38;;;;;;;89.20;58.35;;;;;;;;;;5071761;28;20020;-54
2020/12/27 18:17:04;;;;;;;99.38;54.05;;;;;;;;;;5071853;28;20025;-55
2020/12/27 18:19:30;;;;;;;102.30;57.13;;;;;;;;;;5071774;28;20027;-53
2020/12/27 18:21:57;;;;;;;86.97;54.88;;;;;;;;;;5071686;28;20055;-53
2020/12/27 18:24:24;;;;;;;110.20;64.53;;;;;;;;;;5071708;28;20367;-55
2020/12/27 18:26:50;;;;;;;102.35;61.08;;;;;;;;;;5071690;28;20028;-52
2020/12/27 18:29:16;;;;;;;99.03;57.08;;;;;;;;;;5071843;28;20100;-54
2020/12/27 18:31:49;;;;;;;95.38;55.17;;;;;;;;;;5070372;28;20409;-54
2020/12/27 18:34:15;;;;;;;101.32;62.63;;;;;;;;;;5071652;28;20055;-54
2020/12/27 18:36:41;;;;;;;88.47;55.67;;;;;;;;;;5071660;28;20074;-55
2020/12/27 18:39:07;;;;;;;114.90;58.80;;;;;;;;;;5071574;28;20103;-54
2020/12/27 18:41:34;;;;;;;89.57;52.95;;;;;;;;;;5071598;28;20025;-53
2020/12/27 18:44:00;;;;;;;88.97;55.92;;;;;;;;;;5071546;28;20048;-52
2020/12/27 18:46:26;;;;;;;97.25;59.88;;;;;;;;;;5071367;28;20032;-54
2020/12/27 18:48:53;;;;;;;91.95;55.70;;;;;;;;;;5071330;28;20024;-53
2020/12/27 18:51:19;;;;;;;85.47;56.17;;;;;;;;;;5071539;28;20036;-55
2020/12/27 18:53:46;;;;;;;101.60;55.42;;;;;;;;;;5071393;28;20024;-55
2020/12/27 18:56:21;;;;;;;99.28;55.00;;;;;;;;;;5071504;28;20036;-54
2020/12/27 18:58:48;;;;;;;88.72;55.85;;;;;;;;;;5071456;28;20044;-54